Time;durP1;ratioP1;P1;durP2;ratioP2;P2;SDS_P1;SDS_P2;PMS_P1;PMS_P2;Temp;Humidity;BMP_temperature;BMP_pressure;BME280_temperature;BME280_humidity;BME280_pressure;Samples;Min_cycle;Max_cycle;Signal;HPM_P1;HPM_P2
2022/01/11 00:00:28;;;;;;;16.55;7.80;;;;;;;6.22;93.33;99491.25;5088817;28;20103;-20
2022/01/11 00:02:55;;;;;;;24.48;11.27;;;;;;;6.50;92.76;99498.97;5070685;28;20036;-20
2022/01/11 00:05:27;;;;;;;20.52;9.38;;;;;;;6.35;93.39;99512.41;5088097;28;20022;-20
2022/01/11 00:07:53;;;;;;;22.85;14.55;;;;;;;6.29;93.59;99505.28;5088889;28;20075;-20
2022/01/11 00:10:28;;;;;;;25.10;16.25;;;;;;;6.48;92.92;99521.38;5087747;28;20134;-20
2022/01/11 00:12:55;;;;;;;8.85;5.20;;;;;;;6.49;92.08;99515.06;5088624;28;20040;-20
2022/01/11 00:15:20;;;;;;;10.00;5.35;;;;;;;6.35;93.34;99528.31;5088255;28;20029;-20
2022/01/11 00:17:46;;;;;;;10.07;5.50;;;;;;;6.57;92.47;99530.75;5088122;28;20060;-20
2022/01/11 00:20:13;;;;;;;12.18;6.32;;;;;;;6.51;92.00;99542.97;5088052;28;20028;-20
2022/01/11 00:22:57;;;;;;;9.32;4.95;;;;;;;6.32;92.72;99522.63;5088449;28;20028;-20
2022/01/11 00:25:22;;;;;;;9.07;4.60;;;;;;;6.29;92.38;99537.06;5088227;28;20034;-21
2022/01/11 00:27:48;;;;;;;9.05;4.40;;;;;;;6.29;92.80;99523.03;5088184;28;20032;-20
2022/01/11 00:30:14;;;;;;;9.05;4.82;;;;;;;6.43;91.87;99549.28;5087915;28;20085;-21
2022/01/11 00:32:45;;;;;;;7.35;4.07;;;;;;;6.36;91.90;99535.25;5087947;28;20061;-20
2022/01/11 00:35:12;;;;;;;8.02;3.83;;;;;;;6.30;92.20;99557.25;5088027;28;20106;-20
2022/01/11 00:37:38;;;;;;;8.40;4.37;;;;;;;6.37;92.39;99559.88;5088156;28;20135;-20
2022/01/11 00:40:04;;;;;;;8.48;4.45;;;;;;;6.26;91.75;99545.44;5088225;28;20054;-20
2022/01/11 00:42:30;;;;;;;7.18;4.30;;;;;;;6.24;91.49;99550.13;5069706;28;20031;-20
2022/01/11 00:44:55;;;;;;;9.25;4.80;;;;;;;6.26;91.88;99561.31;5069627;28;20105;-20
2022/01/11 00:47:21;;;;;;;9.85;4.25;;;;;;;6.22;91.63;99554.81;5069422;28;20039;-20
2022/01/11 00:49:46;;;;;;;11.13;6.50;;;;;;;6.30;92.02;99562.53;5087815;28;20035;-20
2022/01/11 00:52:12;;;;;;;8.25;4.15;;;;;;;6.20;91.77;99562.13;5087954;28;20032;-20
2022/01/11 00:54:37;;;;;;;9.73;4.63;;;;;;;6.25;91.06;99564.97;5088237;28;20540;-20
2022/01/11 00:57:03;;;;;;;8.38;4.38;;;;;;;6.19;91.41;99571.06;5069293;28;20032;-20
2022/01/11 00:59:28;;;;;;;8.85;4.43;;;;;;;6.42;90.66;99576.00;5087780;28;20028;-20
2022/01/11 01:01:54;;;;;;;9.80;4.75;;;;;;;6.10;91.61;99578.41;5069827;28;20097;-20
2022/01/11 01:04:19;;;;;;;9.10;4.68;;;;;;;6.16;91.59;99574.16;5087599;28;20059;-20
2022/01/11 01:06:45;;;;;;;8.32;4.28;;;;;;;6.10;91.32;99583.69;5087617;28;20043;-20
2022/01/11 01:09:11;;;;;;;9.45;4.93;;;;;;;5.90;92.25;99588.91;5087133;28;20039;-20
2022/01/11 01:11:36;;;;;;;8.32;4.40;;;;;;;5.94;91.48;99587.50;5087461;28;20100;-21
2022/01/11 01:14:02;;;;;;;8.85;4.75;;;;;;;6.00;90.97;99591.22;5069250;28;20031;-20
2022/01/11 01:16:27;;;;;;;8.70;4.72;;;;;;;5.90;91.37;99588.91;5087211;28;20032;-20
2022/01/11 01:18:53;;;;;;;7.60;3.97;;;;;;;5.75;91.97;99585.63;5087337;28;20435;-20
2022/01/11 01:21:18;;;;;;;7.88;3.95;;;;;;;5.67;91.14;99577.88;5068800;28;20390;-20
2022/01/11 01:23:44;;;;;;;9.20;4.82;;;;;;;5.75;91.04;99591.72;5069226;28;20035;-21
2022/01/11 01:26:09;;;;;;;9.63;4.60;;;;;;;5.66;91.02;99582.34;5087283;28;20035;-20
2022/01/11 01:28:35;;;;;;;9.02;4.38;;;;;;;5.73;91.42;99598.25;5087277;28;20032;-20
2022/01/11 01:31:01;;;;;;;8.52;4.18;;;;;;;5.71;91.69;99579.09;5086886;28;20024;-20
2022/01/11 01:33:30;;;;;;;9.13;4.82;;;;;;;5.74;89.83;99582.19;5087449;28;20122;-20
2022/01/11 01:36:01;;;;;;;10.95;4.63;;;;;;;5.77;91.56;99597.63;5069383;28;20030;-20
2022/01/11 01:38:27;;;;;;;10.07;4.97;;;;;;;5.64;91.02;99593.13;5087313;28;20039;-20
2022/01/11 01:40:56;;;;;;;8.73;4.93;;;;;;;5.74;90.21;99599.88;5087176;28;20023;-20
2022/01/11 01:43:24;;;;;;;7.93;4.05;;;;;;;5.58;91.12;99606.34;5087096;28;20060;-20
2022/01/11 01:45:50;;;;;;;8.80;4.53;;;;;;;5.48;91.71;99606.69;5087102;28;20020;-21
2022/01/11 01:48:16;;;;;;;10.20;4.90;;;;;;;5.62;92.20;99618.16;5087254;28;20097;-20
2022/01/11 01:50:42;;;;;;;8.70;4.75;;;;;;;5.70;92.53;99625.09;5069056;28;20032;-20
2022/01/11 01:53:10;;;;;;;11.65;5.47;;;;;;;5.79;92.46;99631.84;5086636;28;20122;-20
2022/01/11 01:55:36;;;;;;;9.23;4.93;;;;;;;5.64;93.22;99632.81;5087056;28;20550;-20
2022/01/11 01:58:02;;;;;;;10.27;5.50;;;;;;;5.28;94.07;99633.03;5086742;28;20040;-20
2022/01/11 02:00:29;;;;;;;11.60;5.50;;;;;;;5.12;94.69;99628.88;5068910;28;20032;-20
2022/01/11 02:03:11;;;;;;;12.75;5.97;;;;;;;5.26;94.71;99640.34;5069193;28;20036;-20
2022/01/11 02:05:38;;;;;;;11.20;5.93;;;;;;;5.16;95.21;99645.97;5087005;28;20039;-22
2022/01/11 02:08:05;;;;;;;12.13;6.18;;;;;;;5.02;95.89;99644.25;5086842;28;20035;-20
2022/01/11 02:10:30;;;;;;;10.98;6.03;;;;;;;4.91;96.19;99656.19;5068930;28;20024;-20
2022/01/11 02:12:55;;;;;;;12.00;5.45;;;;;;;4.78;97.43;99651.63;5068706;28;20043;-22
2022/01/11 02:15:21;;;;;;;10.75;6.40;;;;;;;4.70;98.50;99651.75;5069088;28;20028;-20
2022/01/11 02:17:46;;;;;;;13.68;6.90;;;;;;;4.78;98.20;99651.63;5086809;28;20052;-21
2022/01/11 02:20:13;;;;;;;11.95;6.00;;;;;;;4.74;98.99;99662.72;5086956;28;20647;-20
2022/01/11 02:22:38;;;;;;;12.77;6.32;;;;;;;4.85;98.15;99664.06;5086793;28;20516;-20
2022/01/11 02:25:04;;;;;;;12.13;6.28;;;;;;;4.50;98.94;99643.66;5086183;28;20151;-20
2022/01/11 02:27:30;;;;;;;14.25;7.72;;;;;;;4.66;99.32;99666.34;5086529;28;20028;-20
2022/01/11 02:29:56;;;;;;;17.05;8.05;;;;;;;4.56;100.00;99665.84;5086898;28;20081;-20
2022/01/11 02:32:21;;;;;;;15.93;7.18;;;;;;;4.64;98.76;99647.22;5052136;28;20039;-20
2022/01/11 02:34:46;;;;;;;13.27;6.95;;;;;;;4.62;99.34;99665.09;5089549;28;20419;-20
2022/01/11 02:37:13;;;;;;;13.70;6.85;;;;;;;4.54;99.74;99662.59;5090136;28;20028;-20
2022/01/11 02:39:38;;;;;;;18.27;9.65;;;;;;;4.45;100.00;99626.75;5090158;28;20031;-20
2022/01/11 02:42:04;;;;;;;14.02;7.13;;;;;;;4.83;98.76;99657.13;5072065;28;20036;-20
2022/01/11 02:44:30;;;;;;;13.60;6.55;;;;;;;4.87;98.56;99654.13;5072051;28;20446;-21
2022/01/11 02:46:55;;;;;;;13.30;6.38;;;;;;;4.81;98.48;99648.56;5090117;28;20815;-20
2022/01/11 02:49:21;;;;;;;15.10;7.50;;;;;;;4.94;97.23;99649.69;5090007;28;20500;-21
2022/01/11 02:51:47;;;;;;;13.38;7.35;;;;;;;4.86;97.39;99663.03;5071746;28;20085;-20
2022/01/11 02:54:12;;;;;;;14.32;7.50;;;;;;;4.64;97.23;99631.38;5089814;28;20115;-21
2022/01/11 02:56:38;;;;;;;12.88;6.63;;;;;;;5.00;97.53;99664.78;5089787;28;20555;-20
2022/01/11 02:59:03;;;;;;;12.75;6.28;;;;;;;4.74;97.07;99657.44;5090077;28;20028;-21
2022/01/11 03:01:29;;;;;;;11.82;6.07;;;;;;;4.65;97.17;99654.13;5090088;28;20035;-21
2022/01/11 03:03:54;;;;;;;11.35;6.05;;;;;;;4.72;98.74;99664.75;5089673;28;20494;-21
2022/01/11 03:06:20;;;;;;;12.38;6.22;;;;;;;4.65;97.84;99666.53;5089734;28;20036;-20
2022/01/11 03:08:48;;;;;;;12.50;6.05;;;;;;;4.70;97.88;99672.88;5089820;28;20763;-20
2022/01/11 03:11:15;;;;;;;14.48;7.20;;;;;;;4.64;99.14;99673.66;5089593;28;20035;-20
2022/01/11 03:13:43;;;;;;;12.45;6.53;;;;;;;4.49;99.50;99665.78;5089729;28;20887;-20
2022/01/11 03:16:09;;;;;;;11.45;6.00;;;;;;;4.43;99.65;99667.38;5054871;28;20028;-21
2022/01/11 03:18:34;;;;;;;14.23;7.07;;;;;;;4.60;99.41;99672.38;5089460;28;20056;-20
2022/01/11 03:21:00;;;;;;;14.85;7.32;;;;;;;4.80;98.45;99673.38;5071041;28;20521;-20
2022/01/11 03:23:25;;;;;;;22.15;10.77;;;;;;;4.82;97.65;99671.38;5089356;28;20032;-20
2022/01/11 03:25:51;;;;;;;14.65;7.22;;;;;;;4.95;97.42;99685.69;5089789;28;20024;-22
2022/01/11 03:28:18;;;;;;;15.10;7.82;;;;;;;5.01;97.78;99690.22;5089364;28;20136;-20
2022/01/11 03:30:43;;;;;;;12.55;6.45;;;;;;;4.88;96.67;99677.69;5089313;28;20031;-21
2022/01/11 03:33:09;;;;;;;13.63;6.60;;;;;;;4.92;96.22;99688.69;5070841;28;20035;-20
2022/01/11 03:35:36;;;;;;;12.30;5.80;;;;;;;5.13;96.84;99693.97;5070842;28;20032;-20
2022/01/11 03:38:04;;;;;;;12.50;6.45;;;;;;;5.27;95.56;99678.16;5070916;28;20031;-21
2022/01/11 03:40:29;;;;;;;11.40;6.50;;;;;;;5.06;95.95;99701.00;5071343;28;20032;-20
2022/01/11 03:42:55;;;;;;;13.48;7.57;;;;;;;4.81;96.45;99687.41;5089247;28;20085;-20
2022/01/11 03:45:21;;;;;;;36.97;22.13;;;;;;;4.89;96.19;99691.72;5088586;28;20024;-21
2022/01/11 03:47:47;;;;;;;54.00;30.65;;;;;;;4.80;97.31;99694.50;5089085;28;20028;-20
2022/01/11 03:50:13;;;;;;;58.17;32.42;;;;;;;4.91;96.76;99708.22;5089031;28;20066;-20
2022/01/11 03:52:38;;;;;;;31.23;19.15;;;;;;;4.94;97.00;99711.28;5088476;28;20040;-20
2022/01/11 03:55:11;;;;;;;28.88;16.55;;;;;;;5.13;96.33;99723.03;5070508;28;20107;-20
2022/01/11 03:57:36;;;;;;;49.95;27.08;;;;;;;5.52;94.89;99728.78;5088843;28;20559;-20
2022/01/11 04:00:06;;;;;;;44.80;28.45;;;;;;;5.35;93.91;99733.53;5088888;28;20031;-20
2022/01/11 04:02:31;;;;;;;22.75;12.73;;;;;;;5.31;94.38;99737.59;5088594;28;20031;-20
2022/01/11 04:04:57;;;;;;;14.70;7.70;;;;;;;5.32;94.86;99733.94;5070205;28;20035;-22
2022/01/11 04:07:24;;;;;;;15.52;7.38;;;;;;;5.46;93.23;99737.50;5088561;28;20040;-20
2022/01/11 04:09:50;;;;;;;18.52;10.27;;;;;;;5.56;92.76;99736.13;5070264;28;20101;-20
2022/01/11 04:12:15;;;;;;;33.45;20.02;;;;;;;5.34;92.31;99737.22;5088507;28;20028;-20
2022/01/11 04:14:41;;;;;;;40.92;25.75;;;;;;;4.96;94.24;99740.16;5070191;28;20063;-20
2022/01/11 04:17:07;;;;;;;23.95;14.23;;;;;;;5.03;95.32;99739.22;5088204;28;20035;-20
2022/01/11 04:19:32;;;;;;;31.73;19.85;;;;;;;4.97;95.16;99747.09;5088447;28;20059;-20
2022/01/11 04:21:58;;;;;;;27.25;16.88;;;;;;;4.80;95.26;99731.50;5070280;28;20031;-20
2022/01/11 04:24:23;;;;;;;39.75;24.25;;;;;;;4.79;94.65;99753.63;5088709;28;20032;-20
2022/01/11 04:26:49;;;;;;;12.25;6.25;;;;;;;4.69;95.19;99755.75;5087501;28;20086;-21
2022/01/11 04:29:15;;;;;;;10.88;5.43;;;;;;;4.60;95.27;99751.63;5088026;28;20430;-21
2022/01/11 04:31:40;;;;;;;11.82;6.00;;;;;;;4.35;95.84;99759.03;5087188;28;20027;-20
2022/01/11 04:34:06;;;;;;;10.98;5.80;;;;;;;4.11;97.58;99741.72;5087873;28;20047;-20
2022/01/11 04:36:33;;;;;;;11.93;5.68;;;;;;;4.05;96.53;99734.56;5088232;28;20050;-20
2022/01/11 04:38:59;;;;;;;13.05;6.63;;;;;;;4.14;97.62;99751.91;5088000;28;20065;-21
2022/01/11 04:41:24;;;;;;;12.30;6.35;;;;;;;4.07;97.17;99740.47;5087937;28;20119;-20
2022/01/11 04:43:50;;;;;;;12.38;6.28;;;;;;;4.06;97.29;99759.94;5087926;28;20047;-20
2022/01/11 04:46:18;;;;;;;12.15;5.80;;;;;;;4.10;98.23;99769.13;5087738;28;20535;-21
2022/01/11 04:48:45;;;;;;;11.75;5.80;;;;;;;3.93;98.07;99760.59;5069927;28;20036;-20
2022/01/11 04:51:10;;;;;;;14.82;6.53;;;;;;;4.06;97.67;99768.66;5069563;28;20028;-20
2022/01/11 04:53:36;;;;;;;12.05;6.47;;;;;;;4.14;98.41;99768.56;5069488;28;20039;-20
2022/01/11 04:56:01;;;;;;;10.48;5.22;;;;;;;4.05;97.73;99772.31;5087150;28;20028;-21
2022/01/11 04:58:26;;;;;;;12.32;5.93;;;;;;;3.91;98.57;99771.31;5069502;28;20035;-21
2022/01/11 05:00:52;;;;;;;11.93;5.18;;;;;;;3.83;98.58;99787.22;5088012;28;20088;-20
2022/01/11 05:03:19;;;;;;;14.48;6.93;;;;;;;4.04;98.08;99773.28;5087205;28;20043;-20
2022/01/11 05:05:45;;;;;;;15.35;7.45;;;;;;;4.07;97.62;99754.47;5087774;28;20043;-21
2022/01/11 05:08:11;;;;;;;12.05;6.45;;;;;;;4.26;95.55;99786.56;5087608;28;20040;-21
2022/01/11 05:10:42;;;;;;;12.13;6.68;;;;;;;4.08;96.93;99794.88;5087478;28;20024;-21
2022/01/11 05:13:08;;;;;;;14.63;6.80;;;;;;;4.32;96.33;99791.91;5087138;28;20028;-20
2022/01/11 05:15:33;;;;;;;15.73;7.72;;;;;;;4.22;95.73;99786.13;5087765;28;20032;-20
2022/01/11 05:17:58;;;;;;;11.98;6.47;;;;;;;4.33;95.04;99809.41;5087153;28;20059;-20
2022/01/11 05:20:24;;;;;;;15.32;7.68;;;;;;;4.31;94.94;99790.31;5087661;28;20511;-20
2022/01/11 05:22:49;;;;;;;21.75;12.45;;;;;;;4.34;94.96;99813.69;5069308;28;20051;-21
2022/01/11 05:25:15;;;;;;;38.70;22.35;;;;;;;4.49;94.61;99821.56;5087010;28;20043;-21
2022/01/11 05:27:41;;;;;;;21.27;10.32;;;;;;;4.41;94.06;99825.16;5069337;28;20039;-20
2022/01/11 05:30:07;;;;;;;24.67;14.40;;;;;;;4.54;94.35;99827.13;5087200;28;20082;-21
2022/01/11 05:32:35;;;;;;;16.77;8.27;;;;;;;4.08;95.87;99845.00;5087265;28;20036;-20
2022/01/11 05:35:04;;;;;;;13.40;6.13;;;;;;;4.01;96.04;99837.81;5087228;28;20496;-20
2022/01/11 05:37:30;;;;;;;13.50;6.63;;;;;;;3.91;96.35;99839.09;5069042;28;20474;-20
2022/01/11 05:39:55;;;;;;;14.25;6.78;;;;;;;3.91;96.57;99842.53;5087196;28;20032;-20
2022/01/11 05:42:22;;;;;;;15.48;8.27;;;;;;;3.92;96.63;99852.06;5087193;28;20036;-21
2022/01/11 05:44:47;;;;;;;18.05;7.85;;;;;;;3.89;96.40;99849.81;5087202;28;20032;-20
2022/01/11 05:47:13;;;;;;;15.77;8.32;;;;;;;3.82;97.33;99839.19;5086577;28;20093;-20
2022/01/11 05:49:38;;;;;;;14.27;7.32;;;;;;;3.82;97.25;99848.88;5087407;28;20392;-20
2022/01/11 05:52:04;;;;;;;17.00;9.32;;;;;;;3.69;97.78;99853.97;5087036;28;20035;-20
2022/01/11 05:54:29;;;;;;;20.88;11.68;;;;;;;3.77;96.82;99856.53;5068991;28;20024;-20
2022/01/11 05:56:55;;;;;;;17.73;8.95;;;;;;;3.74;97.31;99862.16;5086835;28;20032;-20
2022/01/11 05:59:20;;;;;;;16.48;9.25;;;;;;;3.77;97.33;99877.63;5086851;28;20032;-20
2022/01/11 06:01:46;;;;;;;18.45;8.93;;;;;;;3.77;96.74;99888.19;5086797;28;20035;-20
2022/01/11 06:04:11;;;;;;;19.60;10.90;;;;;;;3.86;97.16;99881.00;5087277;28;20453;-20
2022/01/11 06:06:37;;;;;;;19.60;9.30;;;;;;;3.75;96.40;99890.19;5087136;28;20028;-20
2022/01/11 06:09:03;;;;;;;19.50;10.18;;;;;;;3.68;95.87;99870.78;5070563;28;20051;-20
2022/01/11 06:11:29;;;;;;;21.23;11.70;;;;;;;3.80;96.37;99882.53;5072714;28;20039;-20
2022/01/11 06:13:55;;;;;;;21.40;10.52;;;;;;;3.91;95.19;99887.38;5090783;28;20028;-20
2022/01/11 06:16:21;;;;;;;27.17;11.50;;;;;;;3.90;94.89;99893.66;5072221;28;20104;-20
2022/01/11 06:18:47;;;;;;;21.20;10.35;;;;;;;3.91;94.80;99916.41;5090426;28;20060;-20
2022/01/11 06:21:12;;;;;;;21.42;10.93;;;;;;;3.82;95.26;99922.75;5072275;28;20028;-20
2022/01/11 06:23:38;;;;;;;18.48;9.38;;;;;;;4.04;94.87;99918.44;5055809;28;20039;-20
2022/01/11 06:26:03;;;;;;;20.05;10.18;;;;;;;3.96;93.34;99892.97;5072276;28;20024;-21
2022/01/11 06:28:29;;;;;;;17.08;8.38;;;;;;;4.08;93.78;99927.63;5090743;28;20539;-20
2022/01/11 06:30:54;;;;;;;18.05;9.13;;;;;;;3.99;94.47;99929.53;5090346;28;20070;-21
2022/01/11 06:33:20;;;;;;;19.50;9.00;;;;;;;3.69;95.82;99927.81;5090434;28;20028;-20
2022/01/11 06:35:45;;;;;;;19.80;9.15;;;;;;;3.77;94.69;99935.66;5090325;28;20032;-20
2022/01/11 06:38:11;;;;;;;26.45;10.55;;;;;;;3.71;95.14;99941.66;5090353;28;20093;-20
2022/01/11 06:40:37;;;;;;;29.02;14.00;;;;;;;3.75;95.76;99945.56;5072479;28;20109;-20
2022/01/11 06:43:02;;;;;;;31.27;14.95;;;;;;;3.77;96.56;99954.13;5089972;28;20225;-20
2022/01/11 06:45:29;;;;;;;23.08;10.95;;;;;;;3.69;95.29;99941.00;5089958;28;20118;-20
2022/01/11 06:47:54;;;;;;;23.35;11.43;;;;;;;3.93;95.08;99956.63;5072190;28;20052;-20
2022/01/11 06:50:19;;;;;;;19.20;9.38;;;;;;;3.74;95.23;99946.56;5090683;28;20039;-20
2022/01/11 06:52:45;;;;;;;19.48;10.18;;;;;;;3.73;96.07;99963.38;5090231;28;20035;-21
2022/01/11 06:55:11;;;;;;;39.65;22.52;;;;;;;3.84;95.53;99968.22;5089747;28;20043;-20
2022/01/11 06:57:36;;;;;;;46.22;24.60;;;;;;;3.65;95.96;99976.63;5089843;28;20024;-20
2022/01/11 07:00:06;;;;;;;36.80;18.38;;;;;;;3.51;96.93;99976.38;5089719;28;20032;-20
2022/01/11 07:02:32;;;;;;;23.05;12.82;;;;;;;3.63;96.42;99974.97;5090003;28;20084;-20
2022/01/11 07:04:58;;;;;;;24.58;12.75;;;;;;;3.60;96.17;99962.16;5089820;28;20032;-21
2022/01/11 07:07:23;;;;;;;23.02;11.70;;;;;;;3.88;95.79;99985.34;5089817;28;20024;-20
2022/01/11 07:09:48;;;;;;;29.85;14.82;;;;;;;4.28;94.98;99991.28;5089739;28;20040;-21
2022/01/11 07:12:14;;;;;;;23.85;12.20;;;;;;;4.25;92.57;99994.28;5089764;28;20059;-20
2022/01/11 07:14:39;;;;;;;31.77;16.20;;;;;;;4.10;93.80;99977.59;5089394;28;20032;-20
2022/01/11 07:17:05;;;;;;;20.50;10.65;;;;;;;3.96;94.19;99987.94;5089566;28;20529;-20
2022/01/11 07:19:30;;;;;;;19.40;10.70;;;;;;;3.81;94.42;100003.72;5089070;28;20423;-20
2022/01/11 07:21:59;;;;;;;21.55;10.27;;;;;;;3.77;95.71;99999.78;5089576;28;20032;-21
2022/01/11 07:24:24;;;;;;;18.17;8.65;;;;;;;3.53;96.07;99987.56;5089436;28;20042;-20
2022/01/11 07:26:50;;;;;;;18.65;9.55;;;;;;;3.72;94.95;100012.69;5071206;28;20400;-20
2022/01/11 07:29:15;;;;;;;16.58;8.70;;;;;;;3.72;94.44;100017.13;5089031;28;20036;-20
2022/01/11 07:31:41;;;;;;;18.25;9.20;;;;;;;3.80;94.89;100024.97;5071449;28;20028;-20
2022/01/11 07:34:07;;;;;;;32.78;15.50;;;;;;;3.81;95.27;100026.63;5089503;28;20032;-20
2022/01/11 07:36:33;;;;;;;139.50;51.75;;;;;;;3.95;94.09;100023.22;5071001;28;20695;-20
2022/01/11 07:38:58;;;;;;;25.83;15.05;;;;;;;3.61;94.50;100000.72;5070774;28;20043;-20
2022/01/11 07:41:24;;;;;;;79.57;45.40;;;;;;;3.93;94.38;100030.50;5054308;28;20103;-20
2022/01/11 07:43:49;;;;;;;24.58;12.98;;;;;;;3.96;93.84;100046.00;5089073;28;20040;-20
2022/01/11 07:46:14;;;;;;;20.98;12.75;;;;;;;3.80;95.13;100046.09;5089307;28;20462;-20
2022/01/11 07:48:40;;;;;;;26.20;14.27;;;;;;;4.03;94.07;100056.66;5089075;28;20055;-20
2022/01/11 07:51:05;;;;;;;25.70;14.60;;;;;;;3.88;93.19;100038.09;5070644;28;20038;-20
2022/01/11 07:53:31;;;;;;;57.25;31.73;;;;;;;4.01;93.22;100054.19;5088969;28;20036;-20
2022/01/11 07:55:57;;;;;;;24.70;13.55;;;;;;;4.06;92.55;100045.75;5070790;28;20024;-21
2022/01/11 07:58:22;;;;;;;27.58;15.57;;;;;;;4.09;92.56;100045.41;5088536;28;20040;-20
2022/01/11 08:00:48;;;;;;;27.23;15.40;;;;;;;4.09;92.00;100068.34;5088720;28;20036;-20
2022/01/11 08:03:13;;;;;;;117.13;68.15;;;;;;;4.36;91.51;100051.13;5070312;28;20042;-20
2022/01/11 08:05:38;;;;;;;32.15;19.13;;;;;;;4.42;89.83;100067.06;5088582;28;20089;-22
2022/01/11 08:08:04;;;;;;;23.42;12.38;;;;;;;4.48;88.81;100076.09;5088586;28;20039;-20
2022/01/11 08:10:30;;;;;;;17.33;9.40;;;;;;;4.48;90.00;100075.28;5088535;28;20048;-20
2022/01/11 08:12:55;;;;;;;13.70;7.13;;;;;;;4.07;89.63;100072.97;5088459;28;20051;-22
2022/01/11 08:15:21;;;;;;;16.27;7.65;;;;;;;3.76;91.66;100087.00;5088650;28;20499;-21
2022/01/11 08:17:49;;;;;;;15.00;8.02;;;;;;;3.58;92.46;100076.72;5088374;28;20044;-21
2022/01/11 08:20:15;;;;;;;13.15;6.57;;;;;;;3.32;93.18;100077.81;5088326;28;20498;-21
2022/01/11 08:22:40;;;;;;;13.52;7.32;;;;;;;3.39;94.65;100080.59;5088461;28;20035;-21
2022/01/11 08:25:06;;;;;;;13.50;6.80;;;;;;;3.24;92.91;100077.84;5084899;28;20028;-20
2022/01/11 08:27:36;;;;;;;14.25;6.93;;;;;;;3.22;94.14;100096.47;5056842;28;20055;-20
2022/01/11 08:30:03;;;;;;;13.57;6.78;;;;;;;2.98;94.32;100083.38;5068009;28;20354;-20
2022/01/11 08:32:28;;;;;;;15.18;6.90;;;;;;;3.10;94.27;100099.66;5067440;28;20476;-20
2022/01/11 08:34:53;;;;;;;13.45;7.03;;;;;;;3.00;93.85;100087.50;5067865;28;20044;-20
2022/01/11 08:37:19;;;;;;;12.30;6.32;;;;;;;3.07;94.84;100092.91;5067752;28;20036;-20
2022/01/11 08:39:44;;;;;;;15.20;7.38;;;;;;;3.15;93.62;100094.72;5067796;28;20036;-20
2022/01/11 08:42:14;;;;;;;14.18;6.35;;;;;;;3.03;93.69;100099.50;5067469;28;20032;-20
2022/01/11 08:44:43;;;;;;;16.02;8.05;;;;;;;3.34;93.00;100069.75;5067596;28;20682;-20
2022/01/11 08:47:08;;;;;;;12.63;6.15;;;;;;;3.27;92.32;100097.78;5067308;28;20646;-20
2022/01/11 08:49:34;;;;;;;14.55;6.85;;;;;;;3.63;91.57;100098.94;5067921;28;20020;-20
2022/01/11 08:52:00;;;;;;;13.10;7.07;;;;;;;3.85;90.87;100088.59;5067754;28;20033;-21
2022/01/11 08:54:25;;;;;;;16.60;8.02;;;;;;;4.08;89.09;100082.50;5049897;28;20032;-21
2022/01/11 08:56:55;;;;;;;15.25;7.93;;;;;;;3.89;88.79;100100.44;5067293;28;20498;-20
2022/01/11 08:59:21;;;;;;;13.60;7.03;;;;;;;3.74;88.53;100088.97;5067577;28;20032;-20
2022/01/11 09:01:47;;;;;;;16.10;8.82;;;;;;;3.61;89.31;100084.28;5067431;28;20024;-22
2022/01/11 09:04:13;;;;;;;14.38;7.63;;;;;;;3.59;90.15;100102.09;5067545;28;20153;-21
2022/01/11 09:06:38;;;;;;;14.63;7.20;;;;;;;3.50;90.48;100106.59;5067504;28;20036;-20
2022/01/11 09:09:04;;;;;;;13.68;6.53;;;;;;;3.25;91.29;100097.97;5066969;28;20409;-21
2022/01/11 09:11:29;;;;;;;14.95;7.15;;;;;;;3.39;91.42;100120.13;5067329;28;20381;-20
2022/01/11 09:13:55;;;;;;;13.88;7.10;;;;;;;3.20;91.81;100111.63;5067628;28;20028;-20
2022/01/11 09:16:23;;;;;;;15.48;6.82;;;;;;;3.13;93.12;100115.94;5067501;28;20043;-21
2022/01/11 09:18:49;;;;;;;14.47;6.73;;;;;;;2.90;93.43;100091.28;5067642;28;20093;-21
2022/01/11 09:21:16;;;;;;;15.10;8.18;;;;;;;3.10;93.70;100113.63;5067081;28;20285;-20
2022/01/11 09:23:41;;;;;;;12.35;5.57;;;;;;;2.92;92.89;100108.59;5067045;28;20029;-19
2022/01/11 09:26:07;;;;;;;12.38;6.05;;;;;;;3.06;94.06;100107.06;5067274;28;20028;-20
2022/01/11 09:28:32;;;;;;;14.02;7.03;;;;;;;3.07;93.60;100111.34;5067507;28;20456;-21
2022/01/11 09:30:58;;;;;;;12.93;6.90;;;;;;;3.25;93.01;100111.16;5066974;28;20040;-20
2022/01/11 09:33:23;;;;;;;15.40;7.45;;;;;;;3.31;92.33;100105.19;5067258;28;20035;-20
2022/01/11 09:35:49;;;;;;;13.82;7.50;;;;;;;3.56;91.41;100098.00;5067172;28;20082;-21
2022/01/11 09:38:14;;;;;;;13.27;7.07;;;;;;;3.89;91.00;100118.91;5067137;28;20024;-20
2022/01/11 09:40:40;;;;;;;15.23;8.00;;;;;;;4.07;89.98;100125.75;5066717;28;20024;-20
2022/01/11 09:43:05;;;;;;;19.98;9.55;;;;;;;3.54;91.40;100128.97;5069359;28;20125;-20
2022/01/11 09:45:31;;;;;;;11.40;6.03;;;;;;;3.07;91.77;100126.34;5071091;28;20090;-21
2022/01/11 09:47:56;;;;;;;18.65;9.48;;;;;;;2.78;92.76;100131.16;5071195;28;20432;-21
2022/01/11 09:50:22;;;;;;;36.72;17.33;;;;;;;2.72;94.17;100121.31;5071024;28;20052;-20
2022/01/11 09:52:47;;;;;;;15.68;8.45;;;;;;;2.80;93.86;100110.75;5070872;28;20040;-20
2022/01/11 09:55:13;;;;;;;29.17;13.18;;;;;;;2.84;94.54;100107.78;5070950;28;20048;-21
2022/01/11 09:57:39;;;;;;;12.93;5.50;;;;;;;2.87;93.12;100104.81;5070920;28;20458;-20
2022/01/11 10:00:06;;;;;;;13.80;6.78;;;;;;;2.84;94.68;100118.31;5070885;28;20035;-20
2022/01/11 10:02:32;;;;;;;10.88;5.97;;;;;;;2.74;93.63;100114.06;5070562;28;20435;-20
2022/01/11 10:04:59;;;;;;;14.13;7.20;;;;;;;2.58;94.04;100114.06;5070499;28;20024;-22
2022/01/11 10:07:29;;;;;;;13.32;7.97;;;;;;;2.60;94.92;100104.19;5070464;28;20024;-21
2022/01/11 10:09:54;;;;;;;12.65;6.22;;;;;;;2.65;95.01;100112.41;5070837;28;20020;-21
2022/01/11 10:12:22;;;;;;;18.05;9.18;;;;;;;2.55;94.65;100120.47;5052695;28;20412;-21
2022/01/11 10:14:52;;;;;;;12.38;6.80;;;;;;;2.32;95.08;100106.34;5070634;28;20175;-21
2022/01/11 10:17:30;;;;;;;13.35;6.90;;;;;;;2.47;95.73;100117.03;5052313;28;20054;-20
2022/01/11 10:20:01;;;;;;;12.52;6.40;;;;;;;2.39;95.72;100110.78;5070406;28;20087;-21
2022/01/11 10:22:30;;;;;;;12.52;5.72;;;;;;;2.50;95.67;100121.97;5052845;28;20408;-20
2022/01/11 10:24:55;;;;;;;17.20;10.43;;;;;;;2.25;96.07;100114.06;5070318;28;20487;-20
2022/01/11 10:27:21;;;;;;;17.27;9.18;;;;;;;2.49;95.27;100131.66;5070315;28;20033;-21
2022/01/11 10:29:53;;;;;;;10.75;5.70;;;;;;;2.32;95.50;100115.03;5070247;28;20025;-20
2022/01/11 10:32:34;;;;;;;10.27;5.13;;;;;;;2.16;94.71;100107.13;5070152;28;20032;-20
2022/01/11 10:35:03;;;;;;;11.30;4.90;;;;;;;2.25;95.76;100124.59;5069928;28;20028;-21
2022/01/11 10:37:38;;;;;;;9.38;3.65;;;;;;;2.09;95.62;100135.09;5052002;28;20024;-20
2022/01/11 10:40:23;;;;;;;10.10;4.28;;;;;;;2.18;95.81;100123.59;5069046;28;20032;-20
2022/01/11 10:42:53;;;;;;;11.30;5.70;;;;;;;2.49;94.79;100136.09;5069634;28;20119;-20
2022/01/11 10:45:25;;;;;;;8.55;4.65;;;;;;;2.20;95.31;100132.13;5070034;28;20093;-21
2022/01/11 10:47:55;;;;;;;11.18;5.47;;;;;;;2.31;96.07;100126.56;5069912;28;20028;-20
2022/01/11 10:50:28;;;;;;;12.70;6.80;;;;;;;2.20;96.21;100111.09;5069904;28;20680;-20
2022/01/11 10:52:58;;;;;;;12.50;5.68;;;;;;;2.21;95.24;100121.47;5068460;28;20024;-21
2022/01/11 10:55:27;;;;;;;12.88;6.40;;;;;;;2.29;94.70;100136.44;5068538;28;20455;-20
2022/01/11 10:57:57;;;;;;;12.88;7.45;;;;;;;2.42;95.34;100155.19;5069854;28;20028;-20
2022/01/11 11:00:36;;;;;;;11.95;7.45;;;;;;;2.33;93.84;100140.41;5069763;28;20060;-20
2022/01/11 11:03:03;;;;;;;11.15;5.90;;;;;;;2.09;94.07;100145.63;5069356;28;20035;-20
2022/01/11 11:05:32;;;;;;;12.82;6.50;;;;;;;2.06;95.80;100161.72;5069333;28;20476;-20
2022/01/11 11:08:17;;;;;;;12.10;6.40;;;;;;;2.21;94.43;100160.13;5069407;28;20024;-21
2022/01/11 11:11:04;;;;;;;10.80;5.30;;;;;;;2.13;96.00;100153.03;5069700;28;20035;-20
2022/01/11 11:13:34;;;;;;;12.63;5.88;;;;;;;2.12;94.21;100134.75;5069473;28;20113;-21
2022/01/11 11:16:18;;;;;;;11.43;6.57;;;;;;;2.39;94.22;100146.78;5069538;28;20492;-21
2022/01/11 11:19:00;;;;;;;12.65;6.07;;;;;;;2.29;93.08;100144.34;5069181;28;20052;-22
2022/01/11 11:21:38;;;;;;;12.82;8.43;;;;;;;2.39;93.37;100150.25;5069204;28;20032;-20
2022/01/11 11:24:07;;;;;;;12.50;5.97;;;;;;;2.60;92.53;100141.06;5069289;28;20528;-21
2022/01/11 11:26:36;;;;;;;8.25;4.63;;;;;;;2.22;91.89;100152.03;5068878;28;20033;-20